sensor_id;sensor_type;location;lat;lon;timestamp;P1;durP1;ratioP1;P2;durP2;ratioP2
45806;SDS011;31507;51.494;7.518;2023-05-28T00:00:11;22.75;;;10.15;;
45806;SDS011;31507;51.494;7.518;2023-05-28T00:02:37;18.38;;;9.63;;
45806;SDS011;31507;51.494;7.518;2023-05-28T00:05:03;15.82;;;9.65;;
45806;SDS011;31507;51.494;7.518;2023-05-28T00:07:30;26.83;;;10.65;;
45806;SDS011;31507;51.494;7.518;2023-05-28T00:09:56;22.35;;;11.38;;
45806;SDS011;31507;51.494;7.518;2023-05-28T00:12:22;20.77;;;10.35;;
45806;SDS011;31507;51.494;7.518;2023-05-28T00:14:47;24.98;;;11.00;;
45806;SDS011;31507;51.494;7.518;2023-05-28T00:17:14;23.60;;;10.88;;
45806;SDS011;31507;51.494;7.518;2023-05-28T00:19:40;31.42;;;12.38;;
45806;SDS011;31507;51.494;7.518;2023-05-28T00:22:06;25.20;;;11.05;;
45806;SDS011;31507;51.494;7.518;2023-05-28T00:24:32;20.90;;;12.07;;
45806;SDS011;31507;51.494;7.518;2023-05-28T00:26:58;27.30;;;12.95;;
45806;SDS011;31507;51.494;7.518;2023-05-28T00:29:24;20.58;;;11.55;;
45806;SDS011;31507;51.494;7.518;2023-05-28T00:31:52;28.13;;;13.00;;
45806;SDS011;31507;51.494;7.518;2023-05-28T00:34:20;23.88;;;12.07;;
45806;SDS011;31507;51.494;7.518;2023-05-28T00:36:46;25.77;;;11.45;;
45806;SDS011;31507;51.494;7.518;2023-05-28T00:39:14;27.38;;;12.27;;
45806;SDS011;31507;51.494;7.518;2023-05-28T00:41:40;25.83;;;12.77;;
45806;SDS011;31507;51.494;7.518;2023-05-28T00:44:06;25.02;;;12.55;;
45806;SDS011;31507;51.494;7.518;2023-05-28T00:46:34;22.52;;;13.07;;
45806;SDS011;31507;51.494;7.518;2023-05-28T00:49:01;27.75;;;11.98;;
45806;SDS011;31507;51.494;7.518;2023-05-28T00:51:27;26.25;;;11.07;;
45806;SDS011;31507;51.494;7.518;2023-05-28T00:53:53;26.65;;;11.95;;
45806;SDS011;31507;51.494;7.518;2023-05-28T00:56:19;21.35;;;11.02;;
45806;SDS011;31507;51.494;7.518;2023-05-28T00:58:47;22.92;;;10.68;;
45806;SDS011;31507;51.494;7.518;2023-05-28T01:01:14;24.63;;;10.50;;
45806;SDS011;31507;51.494;7.518;2023-05-28T01:03:40;25.65;;;11.25;;
45806;SDS011;31507;51.494;7.518;2023-05-28T01:06:06;24.77;;;11.52;;
45806;SDS011;31507;51.494;7.518;2023-05-28T01:08:38;22.85;;;10.77;;
45806;SDS011;31507;51.494;7.518;2023-05-28T01:11:05;22.63;;;10.93;;
45806;SDS011;31507;51.494;7.518;2023-05-28T01:13:33;27.25;;;11.80;;
45806;SDS011;31507;51.494;7.518;2023-05-28T01:16:00;19.38;;;9.15;;
45806;SDS011;31507;51.494;7.518;2023-05-28T01:18:26;26.35;;;10.57;;
45806;SDS011;31507;51.494;7.518;2023-05-28T01:20:53;24.70;;;11.82;;
45806;SDS011;31507;51.494;7.518;2023-05-28T01:23:19;19.58;;;10.45;;
45806;SDS011;31507;51.494;7.518;2023-05-28T01:25:49;18.77;;;10.63;;
45806;SDS011;31507;51.494;7.518;2023-05-28T01:28:17;19.88;;;10.65;;
45806;SDS011;31507;51.494;7.518;2023-05-28T01:30:45;24.25;;;10.57;;
45806;SDS011;31507;51.494;7.518;2023-05-28T01:33:11;18.85;;;9.55;;
45806;SDS011;31507;51.494;7.518;2023-05-28T01:35:38;26.10;;;10.48;;
45806;SDS011;31507;51.494;7.518;2023-05-28T01:38:04;22.45;;;10.15;;
45806;SDS011;31507;51.494;7.518;2023-05-28T01:40:31;19.00;;;10.07;;
45806;SDS011;31507;51.494;7.518;2023-05-28T01:42:59;21.35;;;9.73;;
45806;SDS011;31507;51.494;7.518;2023-05-28T01:45:27;22.50;;;9.93;;
45806;SDS011;31507;51.494;7.518;2023-05-28T01:47:53;16.00;;;10.07;;
45806;SDS011;31507;51.494;7.518;2023-05-28T01:50:19;20.98;;;10.38;;
45806;SDS011;31507;51.494;7.518;2023-05-28T01:52:45;18.17;;;10.27;;
45806;SDS011;31507;51.494;7.518;2023-05-28T01:55:11;21.65;;;10.38;;
45806;SDS011;31507;51.494;7.518;2023-05-28T01:57:38;18.95;;;10.45;;
45806;SDS011;31507;51.494;7.518;2023-05-28T02:00:04;25.42;;;10.20;;
45806;SDS011;31507;51.494;7.518;2023-05-28T02:02:31;15.93;;;9.75;;
45806;SDS011;31507;51.494;7.518;2023-05-28T02:04:57;23.75;;;11.10;;
45806;SDS011;31507;51.494;7.518;2023-05-28T02:07:23;20.98;;;11.07;;
45806;SDS011;31507;51.494;7.518;2023-05-28T02:09:49;23.90;;;11.32;;
45806;SDS011;31507;51.494;7.518;2023-05-28T02:12:15;26.13;;;11.43;;
45806;SDS011;31507;51.494;7.518;2023-05-28T02:14:41;22.20;;;11.63;;
45806;SDS011;31507;51.494;7.518;2023-05-28T02:17:08;23.85;;;11.32;;
45806;SDS011;31507;51.494;7.518;2023-05-28T02:19:34;28.00;;;12.15;;
45806;SDS011;31507;51.494;7.518;2023-05-28T02:22:00;21.33;;;11.20;;
45806;SDS011;31507;51.494;7.518;2023-05-28T02:24:26;22.20;;;12.05;;
45806;SDS011;31507;51.494;7.518;2023-05-28T02:26:52;24.38;;;12.05;;
45806;SDS011;31507;51.494;7.518;2023-05-28T02:29:18;24.40;;;12.23;;
45806;SDS011;31507;51.494;7.518;2023-05-28T02:31:44;28.23;;;12.65;;
45806;SDS011;31507;51.494;7.518;2023-05-28T02:34:09;22.35;;;12.48;;
45806;SDS011;31507;51.494;7.518;2023-05-28T02:36:35;23.25;;;11.90;;
45806;SDS011;31507;51.494;7.518;2023-05-28T02:39:01;25.33;;;12.23;;
45806;SDS011;31507;51.494;7.518;2023-05-28T02:41:28;22.85;;;11.80;;
45806;SDS011;31507;51.494;7.518;2023-05-28T02:43:53;22.85;;;12.13;;
45806;SDS011;31507;51.494;7.518;2023-05-28T02:46:19;25.13;;;12.07;;
45806;SDS011;31507;51.494;7.518;2023-05-28T02:48:45;24.20;;;13.43;;
45806;SDS011;31507;51.494;7.518;2023-05-28T02:51:10;30.67;;;13.75;;
45806;SDS011;31507;51.494;7.518;2023-05-28T02:53:36;24.23;;;13.38;;
45806;SDS011;31507;51.494;7.518;2023-05-28T02:56:02;26.98;;;12.70;;
45806;SDS011;31507;51.494;7.518;2023-05-28T02:58:28;29.67;;;13.00;;
45806;SDS011;31507;51.494;7.518;2023-05-28T03:00:55;26.30;;;13.80;;
45806;SDS011;31507;51.494;7.518;2023-05-28T03:03:21;26.98;;;13.88;;
45806;SDS011;31507;51.494;7.518;2023-05-28T03:05:47;27.25;;;13.48;;
45806;SDS011;31507;51.494;7.518;2023-05-28T03:08:16;28.35;;;14.10;;
45806;SDS011;31507;51.494;7.518;2023-05-28T03:10:42;28.75;;;13.98;;
45806;SDS011;31507;51.494;7.518;2023-05-28T03:13:08;29.80;;;14.25;;
45806;SDS011;31507;51.494;7.518;2023-05-28T03:15:34;34.70;;;14.43;;
45806;SDS011;31507;51.494;7.518;2023-05-28T03:18:00;31.10;;;15.68;;
45806;SDS011;31507;51.494;7.518;2023-05-28T03:20:26;31.67;;;15.60;;
45806;SDS011;31507;51.494;7.518;2023-05-28T03:22:55;35.15;;;15.80;;
45806;SDS011;31507;51.494;7.518;2023-05-28T03:25:21;35.15;;;16.35;;
45806;SDS011;31507;51.494;7.518;2023-05-28T03:27:48;31.10;;;15.55;;
45806;SDS011;31507;51.494;7.518;2023-05-28T03:30:13;33.65;;;17.38;;
45806;SDS011;31507;51.494;7.518;2023-05-28T03:32:40;32.40;;;15.60;;
45806;SDS011;31507;51.494;7.518;2023-05-28T03:35:06;39.90;;;17.58;;
45806;SDS011;31507;51.494;7.518;2023-05-28T03:37:33;31.52;;;16.73;;
45806;SDS011;31507;51.494;7.518;2023-05-28T03:39:58;31.58;;;16.17;;
45806;SDS011;31507;51.494;7.518;2023-05-28T03:42:24;31.13;;;15.65;;
45806;SDS011;31507;51.494;7.518;2023-05-28T03:44:50;34.05;;;16.13;;
45806;SDS011;31507;51.494;7.518;2023-05-28T03:47:15;30.00;;;15.90;;
45806;SDS011;31507;51.494;7.518;2023-05-28T03:49:42;34.53;;;16.13;;
45806;SDS011;31507;51.494;7.518;2023-05-28T03:52:08;34.63;;;16.02;;
45806;SDS011;31507;51.494;7.518;2023-05-28T03:54:34;31.02;;;15.98;;
45806;SDS011;31507;51.494;7.518;2023-05-28T03:57:00;35.95;;;17.13;;
45806;SDS011;31507;51.494;7.518;2023-05-28T03:59:26;37.08;;;17.85;;
45806;SDS011;31507;51.494;7.518;2023-05-28T04:01:51;29.65;;;16.70;;
45806;SDS011;31507;51.494;7.518;2023-05-28T04:04:17;34.95;;;17.50;;
45806;SDS011;31507;51.494;7.518;2023-05-28T04:06:43;27.75;;;16.15;;
45806;SDS011;31507;51.494;7.518;2023-05-28T04:09:09;32.85;;;17.17;;
45806;SDS011;31507;51.494;7.518;2023-05-28T04:11:35;31.00;;;16.05;;
45806;SDS011;31507;51.494;7.518;2023-05-28T04:14:02;34.00;;;16.85;;
45806;SDS011;31507;51.494;7.518;2023-05-28T04:16:28;30.98;;;18.65;;
45806;SDS011;31507;51.494;7.518;2023-05-28T04:18:54;37.53;;;17.45;;
45806;SDS011;31507;51.494;7.518;2023-05-28T04:21:20;31.45;;;17.52;;
45806;SDS011;31507;51.494;7.518;2023-05-28T04:23:46;33.88;;;18.90;;
45806;SDS011;31507;51.494;7.518;2023-05-28T04:26:12;31.30;;;18.33;;
45806;SDS011;31507;51.494;7.518;2023-05-28T04:28:39;31.95;;;18.42;;
45806;SDS011;31507;51.494;7.518;2023-05-28T04:31:06;34.30;;;18.15;;
45806;SDS011;31507;51.494;7.518;2023-05-28T04:33:32;37.90;;;19.30;;
45806;SDS011;31507;51.494;7.518;2023-05-28T04:35:58;32.80;;;17.65;;
45806;SDS011;31507;51.494;7.518;2023-05-28T04:38:25;41.97;;;18.63;;
45806;SDS011;31507;51.494;7.518;2023-05-28T04:40:56;33.72;;;17.73;;
45806;SDS011;31507;51.494;7.518;2023-05-28T04:43:23;36.20;;;17.23;;
45806;SDS011;31507;51.494;7.518;2023-05-28T04:45:49;33.53;;;17.60;;
45806;SDS011;31507;51.494;7.518;2023-05-28T04:48:14;33.45;;;16.33;;
45806;SDS011;31507;51.494;7.518;2023-05-28T04:50:40;30.08;;;16.30;;
45806;SDS011;31507;51.494;7.518;2023-05-28T04:53:06;25.30;;;14.25;;
45806;SDS011;31507;51.494;7.518;2023-05-28T04:55:32;27.85;;;13.52;;
45806;SDS011;31507;51.494;7.518;2023-05-28T04:57:58;24.10;;;13.15;;
45806;SDS011;31507;51.494;7.518;2023-05-28T05:00:23;21.20;;;13.00;;
45806;SDS011;31507;51.494;7.518;2023-05-28T05:02:51;30.45;;;14.40;;
45806;SDS011;31507;51.494;7.518;2023-05-28T05:05:18;23.42;;;13.75;;
45806;SDS011;31507;51.494;7.518;2023-05-28T05:07:47;25.85;;;13.30;;
45806;SDS011;31507;51.494;7.518;2023-05-28T05:10:13;22.95;;;12.93;;
45806;SDS011;31507;51.494;7.518;2023-05-28T05:12:38;28.27;;;12.55;;
45806;SDS011;31507;51.494;7.518;2023-05-28T05:15:04;19.77;;;11.35;;
45806;SDS011;31507;51.494;7.518;2023-05-28T05:17:31;17.02;;;11.02;;
45806;SDS011;31507;51.494;7.518;2023-05-28T05:19:57;17.95;;;9.80;;
45806;SDS011;31507;51.494;7.518;2023-05-28T05:22:23;19.58;;;9.57;;
45806;SDS011;31507;51.494;7.518;2023-05-28T05:24:49;18.83;;;8.98;;
45806;SDS011;31507;51.494;7.518;2023-05-28T05:27:14;16.65;;;9.45;;
45806;SDS011;31507;51.494;7.518;2023-05-28T05:29:40;18.33;;;9.32;;
45806;SDS011;31507;51.494;7.518;2023-05-28T05:32:06;18.20;;;8.68;;
45806;SDS011;31507;51.494;7.518;2023-05-28T05:34:33;22.20;;;8.77;;
45806;SDS011;31507;51.494;7.518;2023-05-28T05:36:58;19.80;;;8.23;;
45806;SDS011;31507;51.494;7.518;2023-05-28T05:39:25;13.38;;;7.68;;
45806;SDS011;31507;51.494;7.518;2023-05-28T05:41:50;21.63;;;7.88;;
45806;SDS011;31507;51.494;7.518;2023-05-28T05:44:16;15.48;;;6.85;;
45806;SDS011;31507;51.494;7.518;2023-05-28T05:46:42;12.25;;;6.90;;
45806;SDS011;31507;51.494;7.518;2023-05-28T05:49:08;16.30;;;7.22;;
45806;SDS011;31507;51.494;7.518;2023-05-28T05:51:34;14.93;;;6.65;;
45806;SDS011;31507;51.494;7.518;2023-05-28T05:54:01;14.07;;;6.55;;
45806;SDS011;31507;51.494;7.518;2023-05-28T05:56:27;13.18;;;6.68;;
45806;SDS011;31507;51.494;7.518;2023-05-28T05:58:53;11.80;;;6.85;;
45806;SDS011;31507;51.494;7.518;2023-05-28T06:01:19;12.85;;;6.85;;
45806;SDS011;31507;51.494;7.518;2023-05-28T06:03:45;12.55;;;6.32;;
45806;SDS011;31507;51.494;7.518;2023-05-28T06:06:11;13.15;;;6.00;;
45806;SDS011;31507;51.494;7.518;2023-05-28T06:08:38;14.35;;;7.35;;
45806;SDS011;31507;51.494;7.518;2023-05-28T06:11:04;11.60;;;5.65;;
45806;SDS011;31507;51.494;7.518;2023-05-28T06:13:30;12.48;;;6.43;;
45806;SDS011;31507;51.494;7.518;2023-05-28T06:15:56;13.13;;;6.38;;
45806;SDS011;31507;51.494;7.518;2023-05-28T06:18:22;11.23;;;6.25;;
45806;SDS011;31507;51.494;7.518;2023-05-28T06:20:48;14.07;;;6.72;;
45806;SDS011;31507;51.494;7.518;2023-05-28T06:23:15;11.45;;;5.57;;
45806;SDS011;31507;51.494;7.518;2023-05-28T06:25:42;13.65;;;6.10;;
45806;SDS011;31507;51.494;7.518;2023-05-28T06:28:09;12.82;;;5.63;;
45806;SDS011;31507;51.494;7.518;2023-05-28T06:30:37;12.70;;;6.20;;
45806;SDS011;31507;51.494;7.518;2023-05-28T06:35:31;12.05;;;6.30;;
45806;SDS011;31507;51.494;7.518;2023-05-28T06:37:56;12.82;;;6.03;;
45806;SDS011;31507;51.494;7.518;2023-05-28T06:40:22;16.50;;;5.88;;
45806;SDS011;31507;51.494;7.518;2023-05-28T06:42:47;11.75;;;5.93;;
45806;SDS011;31507;51.494;7.518;2023-05-28T06:45:13;14.93;;;6.22;;
45806;SDS011;31507;51.494;7.518;2023-05-28T06:47:39;10.43;;;5.32;;
45806;SDS011;31507;51.494;7.518;2023-05-28T06:50:05;11.98;;;6.20;;
45806;SDS011;31507;51.494;7.518;2023-05-28T06:52:31;14.48;;;5.97;;
45806;SDS011;31507;51.494;7.518;2023-05-28T06:54:57;17.27;;;6.35;;
45806;SDS011;31507;51.494;7.518;2023-05-28T06:57:22;10.68;;;5.30;;
45806;SDS011;31507;51.494;7.518;2023-05-28T06:59:48;12.50;;;5.97;;
45806;SDS011;31507;51.494;7.518;2023-05-28T07:02:13;12.68;;;5.53;;
45806;SDS011;31507;51.494;7.518;2023-05-28T07:04:40;10.18;;;5.63;;
45806;SDS011;31507;51.494;7.518;2023-05-28T07:07:06;11.63;;;5.63;;
45806;SDS011;31507;51.494;7.518;2023-05-28T07:09:31;10.38;;;4.95;;
45806;SDS011;31507;51.494;7.518;2023-05-28T07:11:57;11.77;;;5.47;;
45806;SDS011;31507;51.494;7.518;2023-05-28T07:14:23;11.27;;;5.18;;
45806;SDS011;31507;51.494;7.518;2023-05-28T07:16:48;10.75;;;5.13;;
45806;SDS011;31507;51.494;7.518;2023-05-28T07:19:14;13.15;;;5.35;;
45806;SDS011;31507;51.494;7.518;2023-05-28T07:21:40;11.30;;;5.22;;
45806;SDS011;31507;51.494;7.518;2023-05-28T07:24:05;9.48;;;4.85;;
45806;SDS011;31507;51.494;7.518;2023-05-28T07:26:34;10.32;;;5.05;;
45806;SDS011;31507;51.494;7.518;2023-05-28T07:29:00;9.35;;;4.40;;
45806;SDS011;31507;51.494;7.518;2023-05-28T07:31:28;11.73;;;4.70;;
45806;SDS011;31507;51.494;7.518;2023-05-28T07:33:56;10.73;;;4.55;;
45806;SDS011;31507;51.494;7.518;2023-05-28T07:36:21;11.48;;;4.90;;
45806;SDS011;31507;51.494;7.518;2023-05-28T07:38:47;11.27;;;4.70;;
45806;SDS011;31507;51.494;7.518;2023-05-28T07:41:13;12.60;;;4.97;;
45806;SDS011;31507;51.494;7.518;2023-05-28T07:43:39;10.00;;;4.35;;
45806;SDS011;31507;51.494;7.518;2023-05-28T07:46:04;9.05;;;4.68;;
45806;SDS011;31507;51.494;7.518;2023-05-28T07:48:30;9.63;;;4.43;;
45806;SDS011;31507;51.494;7.518;2023-05-28T07:50:56;9.45;;;4.50;;
45806;SDS011;31507;51.494;7.518;2023-05-28T07:53:22;12.60;;;4.57;;
45806;SDS011;31507;51.494;7.518;2023-05-28T07:55:48;11.40;;;4.68;;
45806;SDS011;31507;51.494;7.518;2023-05-28T07:58:13;10.50;;;4.53;;
45806;SDS011;31507;51.494;7.518;2023-05-28T08:00:39;10.10;;;4.32;;
45806;SDS011;31507;51.494;7.518;2023-05-28T08:03:05;9.57;;;4.03;;
45806;SDS011;31507;51.494;7.518;2023-05-28T08:05:31;10.43;;;4.15;;
45806;SDS011;31507;51.494;7.518;2023-05-28T08:07:57;8.05;;;4.20;;
45806;SDS011;31507;51.494;7.518;2023-05-28T08:10:23;13.63;;;4.40;;
45806;SDS011;31507;51.494;7.518;2023-05-28T08:12:49;10.25;;;3.90;;
45806;SDS011;31507;51.494;7.518;2023-05-28T08:15:15;9.27;;;4.47;;
45806;SDS011;31507;51.494;7.518;2023-05-28T08:17:40;11.05;;;4.07;;
45806;SDS011;31507;51.494;7.518;2023-05-28T08:20:07;11.13;;;4.28;;
45806;SDS011;31507;51.494;7.518;2023-05-28T08:22:34;8.90;;;3.97;;
45806;SDS011;31507;51.494;7.518;2023-05-28T08:25:00;12.93;;;4.00;;
45806;SDS011;31507;51.494;7.518;2023-05-28T08:27:26;10.30;;;3.55;;
45806;SDS011;31507;51.494;7.518;2023-05-28T08:29:52;9.02;;;4.00;;
45806;SDS011;31507;51.494;7.518;2023-05-28T08:32:17;8.95;;;4.30;;
45806;SDS011;31507;51.494;7.518;2023-05-28T08:34:43;8.45;;;4.30;;
45806;SDS011;31507;51.494;7.518;2023-05-28T08:37:09;9.18;;;4.22;;
45806;SDS011;31507;51.494;7.518;2023-05-28T08:39:35;14.93;;;3.88;;
45806;SDS011;31507;51.494;7.518;2023-05-28T08:42:01;8.50;;;4.25;;
45806;SDS011;31507;51.494;7.518;2023-05-28T08:44:27;9.85;;;4.00;;
45806;SDS011;31507;51.494;7.518;2023-05-28T08:46:53;9.18;;;3.63;;
45806;SDS011;31507;51.494;7.518;2023-05-28T08:49:20;8.93;;;3.78;;
45806;SDS011;31507;51.494;7.518;2023-05-28T08:51:51;10.15;;;3.92;;
45806;SDS011;31507;51.494;7.518;2023-05-28T08:54:19;9.00;;;4.10;;
45806;SDS011;31507;51.494;7.518;2023-05-28T08:56:45;11.18;;;3.90;;
45806;SDS011;31507;51.494;7.518;2023-05-28T08:59:11;9.75;;;3.88;;
45806;SDS011;31507;51.494;7.518;2023-05-28T09:01:37;11.52;;;4.22;;
45806;SDS011;31507;51.494;7.518;2023-05-28T09:04:04;11.23;;;4.05;;
45806;SDS011;31507;51.494;7.518;2023-05-28T09:06:30;8.57;;;3.65;;
45806;SDS011;31507;51.494;7.518;2023-05-28T09:08:56;9.90;;;3.95;;
45806;SDS011;31507;51.494;7.518;2023-05-28T09:11:22;6.90;;;3.83;;
45806;SDS011;31507;51.494;7.518;2023-05-28T09:13:48;6.28;;;3.38;;
45806;SDS011;31507;51.494;7.518;2023-05-28T09:16:20;7.20;;;3.63;;
45806;SDS011;31507;51.494;7.518;2023-05-28T09:18:50;11.32;;;3.78;;
45806;SDS011;31507;51.494;7.518;2023-05-28T09:21:20;9.95;;;3.67;;
45806;SDS011;31507;51.494;7.518;2023-05-28T09:23:50;5.70;;;3.60;;
45806;SDS011;31507;51.494;7.518;2023-05-28T09:26:16;12.48;;;3.92;;
45806;SDS011;31507;51.494;7.518;2023-05-28T09:28:44;9.63;;;3.75;;
45806;SDS011;31507;51.494;7.518;2023-05-28T09:31:10;7.07;;;3.40;;
45806;SDS011;31507;51.494;7.518;2023-05-28T09:33:42;7.18;;;3.35;;
45806;SDS011;31507;51.494;7.518;2023-05-28T09:36:10;7.53;;;3.72;;
45806;SDS011;31507;51.494;7.518;2023-05-28T09:38:39;8.57;;;3.22;;
45806;SDS011;31507;51.494;7.518;2023-05-28T09:41:27;6.90;;;2.90;;
45806;SDS011;31507;51.494;7.518;2023-05-28T09:44:02;8.48;;;3.45;;
45806;SDS011;31507;51.494;7.518;2023-05-28T09:46:33;7.78;;;3.70;;
45806;SDS011;31507;51.494;7.518;2023-05-28T09:49:00;6.90;;;3.22;;
45806;SDS011;31507;51.494;7.518;2023-05-28T09:51:28;6.88;;;3.40;;
45806;SDS011;31507;51.494;7.518;2023-05-28T09:53:56;8.65;;;3.35;;
45806;SDS011;31507;51.494;7.518;2023-05-28T09:56:29;8.43;;;3.30;;
45806;SDS011;31507;51.494;7.518;2023-05-28T09:58:59;8.18;;;2.70;;
45806;SDS011;31507;51.494;7.518;2023-05-28T10:01:29;7.82;;;3.38;;
45806;SDS011;31507;51.494;7.518;2023-05-28T10:04:01;5.72;;;3.10;;
45806;SDS011;31507;51.494;7.518;2023-05-28T10:06:32;4.90;;;2.55;;
45806;SDS011;31507;51.494;7.518;2023-05-28T10:09:00;9.25;;;3.25;;
45806;SDS011;31507;51.494;7.518;2023-05-28T10:11:27;5.22;;;2.72;;
45806;SDS011;31507;51.494;7.518;2023-05-28T10:13:56;7.35;;;3.05;;
45806;SDS011;31507;51.494;7.518;2023-05-28T10:16:22;7.00;;;2.90;;
45806;SDS011;31507;51.494;7.518;2023-05-28T10:18:50;9.80;;;3.17;;
45806;SDS011;31507;51.494;7.518;2023-05-28T10:21:16;7.82;;;2.50;;
45806;SDS011;31507;51.494;7.518;2023-05-28T10:23:44;6.40;;;2.75;;
45806;SDS011;31507;51.494;7.518;2023-05-28T10:26:11;6.40;;;2.72;;
45806;SDS011;31507;51.494;7.518;2023-05-28T10:28:38;7.07;;;2.85;;
45806;SDS011;31507;51.494;7.518;2023-05-28T10:31:04;8.73;;;3.00;;
45806;SDS011;31507;51.494;7.518;2023-05-28T10:33:32;6.60;;;2.85;;
45806;SDS011;31507;51.494;7.518;2023-05-28T10:36:02;7.20;;;2.70;;
45806;SDS011;31507;51.494;7.518;2023-05-28T10:38:28;6.93;;;2.60;;
45806;SDS011;31507;51.494;7.518;2023-05-28T10:41:01;7.28;;;3.13;;
45806;SDS011;31507;51.494;7.518;2023-05-28T10:46:02;7.57;;;2.60;;
45806;SDS011;31507;51.494;7.518;2023-05-28T10:48:31;8.68;;;2.47;;
45806;SDS011;31507;51.494;7.518;2023-05-28T10:50:57;6.10;;;2.50;;
45806;SDS011;31507;51.494;7.518;2023-05-28T10:53:26;5.72;;;2.72;;
45806;SDS011;31507;51.494;7.518;2023-05-28T10:55:55;4.82;;;2.22;;
45806;SDS011;31507;51.494;7.518;2023-05-28T11:01:19;9.43;;;2.60;;
45806;SDS011;31507;51.494;7.518;2023-05-28T11:03:55;7.03;;;2.60;;
45806;SDS011;31507;51.494;7.518;2023-05-28T11:06:21;5.55;;;2.60;;
45806;SDS011;31507;51.494;7.518;2023-05-28T11:08:49;5.93;;;2.67;;
45806;SDS011;31507;51.494;7.518;2023-05-28T11:11:15;6.88;;;2.78;;
45806;SDS011;31507;51.494;7.518;2023-05-28T11:13:42;6.40;;;2.60;;
45806;SDS011;31507;51.494;7.518;2023-05-28T11:16:10;4.68;;;2.40;;
45806;SDS011;31507;51.494;7.518;2023-05-28T11:18:37;7.10;;;2.67;;
45806;SDS011;31507;51.494;7.518;2023-05-28T11:21:06;4.90;;;2.25;;
45806;SDS011;31507;51.494;7.518;2023-05-28T11:23:37;4.80;;;2.63;;
45806;SDS011;31507;51.494;7.518;2023-05-28T11:26:05;3.45;;;2.53;;
45806;SDS011;31507;51.494;7.518;2023-05-28T11:28:47;7.00;;;2.47;;
45806;SDS011;31507;51.494;7.518;2023-05-28T11:31:13;4.93;;;2.33;;
45806;SDS011;31507;51.494;7.518;2023-05-28T11:33:39;7.35;;;2.67;;
45806;SDS011;31507;51.494;7.518;2023-05-28T11:36:04;5.22;;;2.30;;
45806;SDS011;31507;51.494;7.518;2023-05-28T11:38:30;5.35;;;2.45;;
45806;SDS011;31507;51.494;7.518;2023-05-28T11:41:02;5.78;;;2.80;;
45806;SDS011;31507;51.494;7.518;2023-05-28T11:43:27;5.68;;;2.50;;
45806;SDS011;31507;51.494;7.518;2023-05-28T11:45:59;6.05;;;2.70;;
45806;SDS011;31507;51.494;7.518;2023-05-28T11:48:26;4.95;;;2.53;;
45806;SDS011;31507;51.494;7.518;2023-05-28T11:50:59;6.63;;;2.78;;
45806;SDS011;31507;51.494;7.518;2023-05-28T11:53:37;4.70;;;2.50;;
45806;SDS011;31507;51.494;7.518;2023-05-28T11:56:03;4.65;;;2.30;;
45806;SDS011;31507;51.494;7.518;2023-05-28T11:58:30;7.65;;;2.55;;
45806;SDS011;31507;51.494;7.518;2023-05-28T12:00:56;6.90;;;2.63;;
45806;SDS011;31507;51.494;7.518;2023-05-28T12:03:25;4.07;;;2.28;;
45806;SDS011;31507;51.494;7.518;2023-05-28T12:05:51;6.15;;;2.22;;
45806;SDS011;31507;51.494;7.518;2023-05-28T12:08:19;5.72;;;2.15;;
45806;SDS011;31507;51.494;7.518;2023-05-28T12:10:45;4.57;;;2.45;;
45806;SDS011;31507;51.494;7.518;2023-05-28T12:13:13;4.65;;;2.40;;
45806;SDS011;31507;51.494;7.518;2023-05-28T12:15:39;5.97;;;2.47;;
45806;SDS011;31507;51.494;7.518;2023-05-28T12:18:05;4.22;;;2.50;;
45806;SDS011;31507;51.494;7.518;2023-05-28T12:20:41;5.53;;;2.58;;
45806;SDS011;31507;51.494;7.518;2023-05-28T12:28:08;4.93;;;2.25;;
45806;SDS011;31507;51.494;7.518;2023-05-28T12:30:34;5.00;;;2.50;;
45806;SDS011;31507;51.494;7.518;2023-05-28T12:33:00;7.15;;;2.28;;
45806;SDS011;31507;51.494;7.518;2023-05-28T12:35:27;6.15;;;2.22;;
45806;SDS011;31507;51.494;7.518;2023-05-28T12:37:53;5.07;;;2.40;;
45806;SDS011;31507;51.494;7.518;2023-05-28T12:40:18;6.43;;;2.40;;
45806;SDS011;31507;51.494;7.518;2023-05-28T12:42:44;4.53;;;2.60;;
45806;SDS011;31507;51.494;7.518;2023-05-28T12:45:09;7.72;;;2.97;;
45806;SDS011;31507;51.494;7.518;2023-05-28T12:47:35;7.82;;;2.60;;
45806;SDS011;31507;51.494;7.518;2023-05-28T12:50:01;9.93;;;2.72;;
45806;SDS011;31507;51.494;7.518;2023-05-28T12:52:28;9.70;;;2.50;;
45806;SDS011;31507;51.494;7.518;2023-05-28T12:54:57;4.03;;;2.10;;
45806;SDS011;31507;51.494;7.518;2023-05-28T12:57:23;6.55;;;2.55;;
45806;SDS011;31507;51.494;7.518;2023-05-28T12:59:49;4.15;;;2.30;;
45806;SDS011;31507;51.494;7.518;2023-05-28T13:02:15;6.47;;;2.53;;
45806;SDS011;31507;51.494;7.518;2023-05-28T13:04:40;9.15;;;2.80;;
45806;SDS011;31507;51.494;7.518;2023-05-28T13:07:06;4.47;;;2.55;;
45806;SDS011;31507;51.494;7.518;2023-05-28T13:09:33;3.85;;;2.35;;
45806;SDS011;31507;51.494;7.518;2023-05-28T13:11:59;3.50;;;2.03;;
45806;SDS011;31507;51.494;7.518;2023-05-28T13:14:28;6.93;;;2.92;;
45806;SDS011;31507;51.494;7.518;2023-05-28T13:16:55;9.10;;;2.90;;
45806;SDS011;31507;51.494;7.518;2023-05-28T13:19:22;6.32;;;2.53;;
45806;SDS011;31507;51.494;7.518;2023-05-28T13:21:48;8.30;;;2.35;;
45806;SDS011;31507;51.494;7.518;2023-05-28T13:24:14;5.15;;;2.53;;
45806;SDS011;31507;51.494;7.518;2023-05-28T13:26:39;7.95;;;2.65;;
45806;SDS011;31507;51.494;7.518;2023-05-28T13:29:05;9.05;;;2.47;;
45806;SDS011;31507;51.494;7.518;2023-05-28T13:31:31;5.57;;;2.80;;
45806;SDS011;31507;51.494;7.518;2023-05-28T13:33:57;4.78;;;2.53;;
45806;SDS011;31507;51.494;7.518;2023-05-28T13:36:23;6.10;;;2.50;;
45806;SDS011;31507;51.494;7.518;2023-05-28T13:38:50;10.98;;;2.67;;
45806;SDS011;31507;51.494;7.518;2023-05-28T13:41:16;5.45;;;2.72;;
45806;SDS011;31507;51.494;7.518;2023-05-28T13:43:42;5.47;;;2.55;;
45806;SDS011;31507;51.494;7.518;2023-05-28T13:46:08;5.50;;;2.25;;
45806;SDS011;31507;51.494;7.518;2023-05-28T13:48:34;4.55;;;2.33;;
45806;SDS011;31507;51.494;7.518;2023-05-28T13:51:01;5.63;;;2.50;;
45806;SDS011;31507;51.494;7.518;2023-05-28T13:53:28;3.22;;;1.95;;
45806;SDS011;31507;51.494;7.518;2023-05-28T13:55:55;4.72;;;2.20;;
45806;SDS011;31507;51.494;7.518;2023-05-28T13:58:21;12.60;;;2.70;;
45806;SDS011;31507;51.494;7.518;2023-05-28T14:00:47;6.53;;;2.22;;
45806;SDS011;31507;51.494;7.518;2023-05-28T14:03:13;6.65;;;2.53;;
45806;SDS011;31507;51.494;7.518;2023-05-28T14:05:39;11.43;;;2.72;;
45806;SDS011;31507;51.494;7.518;2023-05-28T14:08:05;4.57;;;2.40;;
45806;SDS011;31507;51.494;7.518;2023-05-28T14:10:31;3.75;;;2.40;;
45806;SDS011;31507;51.494;7.518;2023-05-28T14:12:57;4.10;;;2.15;;
45806;SDS011;31507;51.494;7.518;2023-05-28T14:15:23;6.57;;;2.67;;
45806;SDS011;31507;51.494;7.518;2023-05-28T14:17:49;5.20;;;2.30;;
45806;SDS011;31507;51.494;7.518;2023-05-28T14:20:15;5.72;;;2.30;;
45806;SDS011;31507;51.494;7.518;2023-05-28T14:22:41;5.55;;;2.63;;
45806;SDS011;31507;51.494;7.518;2023-05-28T14:25:09;4.35;;;2.60;;
45806;SDS011;31507;51.494;7.518;2023-05-28T14:27:35;8.05;;;2.70;;
45806;SDS011;31507;51.494;7.518;2023-05-28T14:30:00;3.67;;;2.53;;
45806;SDS011;31507;51.494;7.518;2023-05-28T14:32:26;6.00;;;2.70;;
45806;SDS011;31507;51.494;7.518;2023-05-28T14:34:52;5.40;;;3.00;;
45806;SDS011;31507;51.494;7.518;2023-05-28T14:37:17;6.88;;;2.72;;
45806;SDS011;31507;51.494;7.518;2023-05-28T14:39:44;5.68;;;2.28;;
45806;SDS011;31507;51.494;7.518;2023-05-28T14:42:09;4.28;;;2.30;;
45806;SDS011;31507;51.494;7.518;2023-05-28T14:44:35;4.93;;;2.60;;